sensor_id;sensor_type;location;lat;lon;timestamp;pressure;altitude;pressure_sealevel;temperature;humidity
12073;BME280;6098;49.004;8.372;2023-04-24T00:03:05;99276.28;;;13.16;77.07
12073;BME280;6098;49.004;8.372;2023-04-24T00:17:57;99275.63;;;13.26;76.68
12073;BME280;6098;49.004;8.372;2023-04-24T00:32:49;99286.44;;;13.36;75.28
12073;BME280;6098;49.004;8.372;2023-04-24T00:47:40;99291.92;;;13.40;75.22
12073;BME280;6098;49.004;8.372;2023-04-24T01:02:30;99281.11;;;13.36;75.34
12073;BME280;6098;49.004;8.372;2023-04-24T01:17:21;99275.22;;;13.25;76.34
12073;BME280;6098;49.004;8.372;2023-04-24T01:32:11;99272.14;;;13.18;77.30
12073;BME280;6098;49.004;8.372;2023-04-24T01:47:02;99269.84;;;13.19;80.15
12073;BME280;6098;49.004;8.372;2023-04-24T02:01:53;99255.18;;;13.07;80.95
12073;BME280;6098;49.004;8.372;2023-04-24T02:16:45;99251.63;;;12.93;81.77
12073;BME280;6098;49.004;8.372;2023-04-24T02:31:41;99264.50;;;13.00;82.20
12073;BME280;6098;49.004;8.372;2023-04-24T02:46:32;99283.69;;;13.05;82.71
12073;BME280;6098;49.004;8.372;2023-04-24T03:01:23;99304.96;;;12.77;88.31
12073;BME280;6098;49.004;8.372;2023-04-24T03:16:19;99318.77;;;12.35;88.64
12073;BME280;6098;49.004;8.372;2023-04-24T03:31:12;99345.53;;;12.18;90.70
12073;BME280;6098;49.004;8.372;2023-04-24T03:46:22;99355.86;;;12.16;89.91
12073;BME280;6098;49.004;8.372;2023-04-24T04:01:24;99384.11;;;12.03;89.45
12073;BME280;6098;49.004;8.372;2023-04-24T04:16:19;99406.04;;;11.84;87.82
12073;BME280;6098;49.004;8.372;2023-04-24T04:31:10;99425.50;;;11.62;85.63
12073;BME280;6098;49.004;8.372;2023-04-24T04:46:15;99448.48;;;11.39;82.08
12073;BME280;6098;49.004;8.372;2023-04-24T05:01:06;99457.45;;;11.44;82.38
12073;BME280;6098;49.004;8.372;2023-04-24T05:15:58;99472.48;;;11.52;82.18
12073;BME280;6098;49.004;8.372;2023-04-24T05:30:50;99496.39;;;11.68;82.40
12073;BME280;6098;49.004;8.372;2023-04-24T05:45:41;99509.02;;;11.72;81.74
12073;BME280;6098;49.004;8.372;2023-04-24T06:00:34;99527.56;;;11.87;77.12
12073;BME280;6098;49.004;8.372;2023-04-24T06:15:27;99547.92;;;12.02;76.32
12073;BME280;6098;49.004;8.372;2023-04-24T06:30:17;99547.70;;;12.06;75.79
12073;BME280;6098;49.004;8.372;2023-04-24T06:45:07;99560.31;;;12.03;74.06
12073;BME280;6098;49.004;8.372;2023-04-24T07:00:00;99564.15;;;12.35;70.78
12073;BME280;6098;49.004;8.372;2023-04-24T07:14:50;99577.11;;;12.55;68.87
12073;BME280;6098;49.004;8.372;2023-04-24T07:29:43;99574.20;;;12.45;67.25
12073;BME280;6098;49.004;8.372;2023-04-24T07:44:34;99592.33;;;12.89;64.16
12073;BME280;6098;49.004;8.372;2023-04-24T07:59:25;99667.02;;;12.25;64.86
12073;BME280;6098;49.004;8.372;2023-04-24T08:14:15;99649.66;;;12.19;66.40
12073;BME280;6098;49.004;8.372;2023-04-24T08:29:09;99683.24;;;12.13;65.14
12073;BME280;6098;49.004;8.372;2023-04-24T08:43:58;99691.29;;;11.80;69.12
12073;BME280;6098;49.004;8.372;2023-04-24T08:58:50;99707.34;;;12.40;66.36
12073;BME280;6098;49.004;8.372;2023-04-24T09:13:43;99717.52;;;12.71;63.40
12073;BME280;6098;49.004;8.372;2023-04-24T09:28:37;99729.94;;;13.01;60.28
12073;BME280;6098;49.004;8.372;2023-04-24T09:43:30;99752.91;;;12.95;56.62
12073;BME280;6098;49.004;8.372;2023-04-24T09:58:26;99743.91;;;13.20;57.17
12073;BME280;6098;49.004;8.372;2023-04-24T10:13:21;99751.98;;;13.48;56.23
12073;BME280;6098;49.004;8.372;2023-04-24T10:28:11;99783.72;;;13.15;57.39
12073;BME280;6098;49.004;8.372;2023-04-24T10:43:03;99805.86;;;13.00;58.11
12073;BME280;6098;49.004;8.372;2023-04-24T10:58:03;99801.27;;;13.10;59.54
12073;BME280;6098;49.004;8.372;2023-04-24T11:12:56;99820.22;;;12.89;63.70
12073;BME280;6098;49.004;8.372;2023-04-24T11:27:48;99847.16;;;12.90;62.29
12073;BME280;6098;49.004;8.372;2023-04-24T11:42:43;99841.44;;;12.90;63.46
12073;BME280;6098;49.004;8.372;2023-04-24T11:57:33;99849.31;;;13.15;66.50
12073;BME280;6098;49.004;8.372;2023-04-24T12:12:26;99844.15;;;14.15;64.09
12073;BME280;6098;49.004;8.372;2023-04-24T12:27:19;99853.08;;;14.00;57.36
12073;BME280;6098;49.004;8.372;2023-04-24T12:42:11;99835.71;;;14.44;55.54
12073;BME280;6098;49.004;8.372;2023-04-24T12:57:02;99841.80;;;14.94;52.12
12073;BME280;6098;49.004;8.372;2023-04-24T13:11:52;99832.89;;;14.18;54.86
12073;BME280;6098;49.004;8.372;2023-04-24T13:26:45;99827.22;;;14.92;54.76
12073;BME280;6098;49.004;8.372;2023-04-24T13:41:38;99822.18;;;15.27;51.15
12073;BME280;6098;49.004;8.372;2023-04-24T13:56:28;99818.78;;;14.65;53.54
12073;BME280;6098;49.004;8.372;2023-04-24T14:11:19;99814.65;;;14.25;55.77
12073;BME280;6098;49.004;8.372;2023-04-24T14:26:08;99817.48;;;14.22;75.49
12073;BME280;6098;49.004;8.372;2023-04-24T14:41:06;99800.70;;;15.36;63.67
12073;BME280;6098;49.004;8.372;2023-04-24T14:56:04;99798.47;;;16.31;55.49
12073;BME280;6098;49.004;8.372;2023-04-24T15:10:50;99813.84;;;15.26;56.80
12073;BME280;6098;49.004;8.372;2023-04-24T15:25:39;99807.75;;;14.63;57.86
12073;BME280;6098;49.004;8.372;2023-04-24T15:40:28;99801.45;;;14.09;66.66
12073;BME280;6098;49.004;8.372;2023-04-24T15:55:18;99791.93;;;13.55;65.37
12073;BME280;6098;49.004;8.372;2023-04-24T16:10:16;99794.20;;;13.69;64.52
12073;BME280;6098;49.004;8.372;2023-04-24T16:25:08;99803.63;;;13.74;65.66
12073;BME280;6098;49.004;8.372;2023-04-24T16:40:01;99819.33;;;13.64;63.99
12073;BME280;6098;49.004;8.372;2023-04-24T16:54:52;99810.04;;;13.34;70.13
12073;BME280;6098;49.004;8.372;2023-04-24T17:09:42;99824.91;;;12.92;71.23
12073;BME280;6098;49.004;8.372;2023-04-24T17:24:33;99828.84;;;12.77;71.88
12073;BME280;6098;49.004;8.372;2023-04-24T17:39:24;99831.83;;;12.57;73.21
12073;BME280;6098;49.004;8.372;2023-04-24T17:56:33;99829.02;;;12.59;74.09
12073;BME280;6098;49.004;8.372;2023-04-24T17:59:00;99833.63;;;12.64;74.14
12073;BME280;6098;49.004;8.372;2023-04-24T18:13:17;99821.26;;;12.63;72.58
12073;BME280;6098;49.004;8.372;2023-04-24T18:28:10;99836.50;;;12.60;75.35
12073;BME280;6098;49.004;8.372;2023-04-24T18:43:00;99859.18;;;12.51;75.31
12073;BME280;6098;49.004;8.372;2023-04-24T18:57:51;99864.39;;;12.44;75.09
12073;BME280;6098;49.004;8.372;2023-04-24T19:12:43;99885.72;;;12.35;76.11
12073;BME280;6098;49.004;8.372;2023-04-24T19:27:35;99908.92;;;12.15;74.26
12073;BME280;6098;49.004;8.372;2023-04-24T19:42:26;99914.86;;;12.12;73.51
12073;BME280;6098;49.004;8.372;2023-04-24T19:57:17;99900.46;;;12.17;75.87
12073;BME280;6098;49.004;8.372;2023-04-24T20:12:09;99909.80;;;11.99;74.51
12073;BME280;6098;49.004;8.372;2023-04-24T20:27:02;99901.55;;;11.79;73.98
12073;BME280;6098;49.004;8.372;2023-04-24T20:41:53;99892.63;;;11.80;75.26
12073;BME280;6098;49.004;8.372;2023-04-24T20:56:45;99881.95;;;11.73;75.72
12073;BME280;6098;49.004;8.372;2023-04-24T21:11:36;99860.58;;;11.67;76.74
12073;BME280;6098;49.004;8.372;2023-04-24T21:26:27;99848.18;;;11.58;78.00
12073;BME280;6098;49.004;8.372;2023-04-24T21:41:18;99842.20;;;11.54;77.04
12073;BME280;6098;49.004;8.372;2023-04-24T21:56:10;99837.12;;;11.58;74.54
12073;BME280;6098;49.004;8.372;2023-04-24T22:11:00;99849.14;;;11.57;70.66
12073;BME280;6098;49.004;8.372;2023-04-24T22:25:51;99840.09;;;11.18;74.90
12073;BME280;6098;49.004;8.372;2023-04-24T22:40:41;99835.38;;;10.97;75.68
12073;BME280;6098;49.004;8.372;2023-04-24T22:55:34;99837.75;;;10.84;76.62
12073;BME280;6098;49.004;8.372;2023-04-24T23:10:27;99817.17;;;10.72;78.29
12073;BME280;6098;49.004;8.372;2023-04-24T23:25:18;99818.31;;;10.58;79.40
12073;BME280;6098;49.004;8.372;2023-04-24T23:40:11;99813.48;;;10.48;80.21
12073;BME280;6098;49.004;8.372;2023-04-24T23:55:01;99795.40;;;10.38;79.80
